createdAt,value
2023-03-02T00:01:03.996Z,6.00
2023-03-02T00:03:34.669Z,5.40
2023-03-02T00:06:06.065Z,6.40
2023-03-02T00:08:37.436Z,5.60
2023-03-02T00:11:07.880Z,5.10
2023-03-02T00:13:39.235Z,5.50
2023-03-02T00:16:10.875Z,5.30
2023-03-02T00:18:41.900Z,4.80
2023-03-02T00:21:12.827Z,4.70
2023-03-02T00:23:43.402Z,5.10
2023-03-02T00:26:16.847Z,5.30
2023-03-02T00:28:47.792Z,3.90
2023-03-02T00:31:18.590Z,6.00
2023-03-02T00:33:48.844Z,4.70
2023-03-02T00:36:21.703Z,5.90
2023-03-02T00:38:52.592Z,5.60
2023-03-02T00:41:23.768Z,4.50
2023-03-02T00:43:54.052Z,5.00
2023-03-02T00:46:25.615Z,4.50
2023-03-02T00:48:56.230Z,5.30
2023-03-02T00:51:26.636Z,5.40
2023-03-02T00:53:57.273Z,6.20
2023-03-02T00:56:28.183Z,5.70
2023-03-02T00:58:58.454Z,4.90
2023-03-02T01:01:29.057Z,5.60
2023-03-02T01:03:59.332Z,5.60
2023-03-02T01:06:30.265Z,6.10
2023-03-02T01:09:01.548Z,5.20
2023-03-02T01:11:31.885Z,4.60
2023-03-02T01:14:02.119Z,5.30
2023-03-02T01:16:33.902Z,5.80
2023-03-02T01:19:04.690Z,5.60
2023-03-02T01:21:35.639Z,6.30
2023-03-02T01:24:07.524Z,4.70
2023-03-02T01:26:38.946Z,5.90
2023-03-02T01:29:09.690Z,5.80
2023-03-02T01:31:42.621Z,6.40
2023-03-02T01:34:13.164Z,6.30
2023-03-02T01:36:45.258Z,5.90
2023-03-02T01:39:15.924Z,5.70
2023-03-02T01:41:46.934Z,5.00
2023-03-02T01:44:41.194Z,5.60
2023-03-02T01:47:19.035Z,6.70
2023-03-02T01:49:51.982Z,5.70
2023-03-02T01:52:23.811Z,4.90
2023-03-02T01:54:56.449Z,6.20
2023-03-02T01:57:29.531Z,5.80
2023-03-02T02:00:06.374Z,6.40
2023-03-02T02:02:41.891Z,5.30
2023-03-02T02:05:14.106Z,6.30
2023-03-02T02:07:45.320Z,5.40
2023-03-02T02:10:15.830Z,6.30
2023-03-02T02:12:46.217Z,6.90
2023-03-02T02:15:17.436Z,6.00
2023-03-02T02:17:48.247Z,6.90
2023-03-02T02:20:26.042Z,6.40
2023-03-02T02:23:07.038Z,7.10
2023-03-02T02:25:47.345Z,7.50
2023-03-02T02:28:21.789Z,7.00
2023-03-02T02:31:08.652Z,6.20
2023-03-02T02:33:39.480Z,6.50
2023-03-02T02:36:14.037Z,6.30
2023-03-02T02:38:47.664Z,6.60
2023-03-02T02:41:21.806Z,5.90
2023-03-02T02:43:53.216Z,7.20
2023-03-02T02:46:24.465Z,6.20
2023-03-02T02:48:55.548Z,5.60
2023-03-02T02:51:28.280Z,7.40
2023-03-02T02:54:01.183Z,6.60
2023-03-02T02:56:33.183Z,7.20
2023-03-02T02:59:07.090Z,7.90
2023-03-02T03:01:37.583Z,5.80
2023-03-02T03:04:10.763Z,5.70
2023-03-02T03:06:51.481Z,6.80
2023-03-02T03:09:23.110Z,6.30
2023-03-02T03:11:55.531Z,6.50
2023-03-02T03:14:29.011Z,7.00
2023-03-02T03:16:59.421Z,7.40
2023-03-02T03:19:32.608Z,6.90
2023-03-02T03:22:03.888Z,7.50
2023-03-02T03:24:35.113Z,8.70
2023-03-02T03:27:06.237Z,6.30
2023-03-02T03:29:38.174Z,6.60
2023-03-02T03:32:08.999Z,7.30
2023-03-02T03:34:40.348Z,6.80
2023-03-02T03:37:11.486Z,6.20
2023-03-02T03:39:42.094Z,7.60
2023-03-02T03:42:13.215Z,7.40
2023-03-02T03:44:44.151Z,9.20
2023-03-02T03:47:14.409Z,7.10
2023-03-02T03:49:45.122Z,7.20
2023-03-02T03:52:15.580Z,7.70
2023-03-02T03:54:46.093Z,9.60
2023-03-02T03:57:17.893Z,7.80
2023-03-02T03:59:48.413Z,7.70
2023-03-02T04:02:20.766Z,7.70
2023-03-02T04:04:51.883Z,8.80
2023-03-02T04:07:22.857Z,8.00
2023-03-02T04:10:03.427Z,8.70
2023-03-02T04:12:35.006Z,7.60
2023-03-02T04:15:08.169Z,7.10
2023-03-02T04:17:38.764Z,9.10
2023-03-02T04:20:15.837Z,8.70
2023-03-02T04:25:19.513Z,8.50
2023-03-02T04:27:50.894Z,7.50
2023-03-02T04:30:24.368Z,7.10
2023-03-02T04:32:54.876Z,8.30
2023-03-02T04:35:26.242Z,8.90
2023-03-02T04:37:56.681Z,8.00
2023-03-02T04:40:27.521Z,8.40
2023-03-02T04:42:57.974Z,8.60
2023-03-02T04:45:28.473Z,7.50
2023-03-02T04:47:58.827Z,8.10
2023-03-02T04:50:29.796Z,9.00
2023-03-02T04:53:00.448Z,7.90
2023-03-02T04:55:31.364Z,8.30
2023-03-02T04:58:01.861Z,8.40
2023-03-02T05:00:34.106Z,9.40
2023-03-02T05:03:04.975Z,8.80
2023-03-02T05:05:35.764Z,8.30
2023-03-02T05:08:07.300Z,7.90
2023-03-02T05:10:37.798Z,7.90
2023-03-02T05:13:08.294Z,7.10
2023-03-02T05:15:40.136Z,9.10
2023-03-02T05:18:11.710Z,7.00
2023-03-02T05:20:42.151Z,8.00
2023-03-02T05:23:17.002Z,8.90
2023-03-02T05:25:48.080Z,9.40
2023-03-02T05:28:19.914Z,10.70
2023-03-02T05:30:50.509Z,8.70
2023-03-02T05:33:22.187Z,8.80
2023-03-02T05:35:53.111Z,8.80
2023-03-02T05:38:23.821Z,10.10
2023-03-02T05:40:54.700Z,9.80
2023-03-02T05:43:25.656Z,9.60
2023-03-02T05:46:00.136Z,9.10
2023-03-02T05:48:30.700Z,8.40
2023-03-02T05:51:01.681Z,7.60
2023-03-02T05:53:32.259Z,9.80
2023-03-02T05:56:03.173Z,10.10
2023-03-02T05:58:33.582Z,10.00
2023-03-02T06:01:08.002Z,9.00
2023-03-02T06:03:38.473Z,9.40
2023-03-02T06:06:13.686Z,9.20
2023-03-02T06:08:44.755Z,8.10
2023-03-02T06:11:15.629Z,9.80
2023-03-02T06:13:46.462Z,8.40
2023-03-02T06:16:16.840Z,6.70
2023-03-02T06:18:47.934Z,8.80
2023-03-02T06:21:18.349Z,9.20
2023-03-02T06:23:49.362Z,9.20
2023-03-02T06:26:19.737Z,8.30
2023-03-02T06:28:53.243Z,7.10
2023-03-02T06:31:24.267Z,7.10
2023-03-02T06:33:54.766Z,7.70
2023-03-02T06:36:25.397Z,7.40
2023-03-02T06:38:56.081Z,7.10
2023-03-02T06:41:27.058Z,7.00
2023-03-02T06:43:57.501Z,7.20
2023-03-02T06:46:28.212Z,6.30
2023-03-02T06:48:58.978Z,7.40
2023-03-02T06:51:29.418Z,8.10
2023-03-02T06:54:00.109Z,7.20
2023-03-02T06:56:31.223Z,6.30
2023-03-02T06:59:01.750Z,7.20
2023-03-02T07:01:35.501Z,8.40
2023-03-02T07:04:06.374Z,7.00
2023-03-02T07:06:36.543Z,7.20
2023-03-02T07:09:06.867Z,6.10
2023-03-02T07:11:37.495Z,6.60
2023-03-02T07:14:07.990Z,6.30
2023-03-02T07:16:38.439Z,7.50
2023-03-02T07:19:13.468Z,7.40
2023-03-02T07:21:43.680Z,7.40
2023-03-02T07:24:14.089Z,6.80
2023-03-02T07:26:44.453Z,6.00
2023-03-02T07:29:14.931Z,6.10
2023-03-02T07:31:45.274Z,7.50
2023-03-02T07:34:16.422Z,7.10
2023-03-02T07:36:46.867Z,5.70
2023-03-02T07:39:17.257Z,7.00
2023-03-02T07:41:48.007Z,7.50
2023-03-02T07:44:18.850Z,9.10
2023-03-02T07:46:49.250Z,7.90
2023-03-02T07:49:20.205Z,7.60
2023-03-02T07:51:50.927Z,7.20
2023-03-02T07:54:21.426Z,6.20
2023-03-02T07:56:51.797Z,7.50
2023-03-02T07:59:22.512Z,7.40
2023-03-02T08:01:53.016Z,7.50
2023-03-02T08:04:23.389Z,7.80
2023-03-02T08:06:53.940Z,8.10
2023-03-02T08:09:25.517Z,7.70
2023-03-02T08:11:55.904Z,7.60
2023-03-02T08:14:26.485Z,8.90
2023-03-02T08:16:57.058Z,8.40
2023-03-02T08:19:27.659Z,8.50
2023-03-02T08:21:58.534Z,8.60
2023-03-02T08:24:29.727Z,8.70
2023-03-02T08:27:03.377Z,7.80
2023-03-02T08:29:34.968Z,7.50
2023-03-02T08:32:06.136Z,7.80
2023-03-02T08:34:39.479Z,8.10
2023-03-02T08:37:09.836Z,8.70
2023-03-02T08:39:40.514Z,8.10
2023-03-02T08:42:11.105Z,7.50
2023-03-02T08:44:44.127Z,7.90
2023-03-02T08:47:14.770Z,8.10
2023-03-02T08:49:47.501Z,9.30
2023-03-02T08:52:18.642Z,9.40
2023-03-02T08:54:54.441Z,9.10
2023-03-02T08:57:25.210Z,8.20
2023-03-02T08:59:56.900Z,9.70
2023-03-02T09:02:29.713Z,9.30
2023-03-02T09:05:00.185Z,10.10
2023-03-02T09:07:30.785Z,8.80
2023-03-02T09:10:01.349Z,10.30
2023-03-02T09:12:32.226Z,10.90
2023-03-02T09:15:02.762Z,11.20
2023-03-02T09:17:33.324Z,11.70
2023-03-02T09:20:03.978Z,8.60
2023-03-02T09:22:35.951Z,9.70
2023-03-02T09:25:07.440Z,10.50
2023-03-02T09:27:37.765Z,8.40
2023-03-02T09:30:10.616Z,9.30
2023-03-02T09:32:41.404Z,8.50
2023-03-02T09:35:12.085Z,10.80
2023-03-02T09:37:44.359Z,9.30
2023-03-02T09:40:19.622Z,8.10
2023-03-02T09:43:08.109Z,8.10
2023-03-02T09:46:04.362Z,6.40
2023-03-02T09:48:39.242Z,7.50
2023-03-02T09:51:22.222Z,7.80
2023-03-02T09:54:00.666Z,7.10
2023-03-02T09:56:31.869Z,7.20
2023-03-02T09:59:06.233Z,6.80
2023-03-02T10:01:48.049Z,7.40
2023-03-02T10:04:26.771Z,6.30
2023-03-02T10:07:02.820Z,7.60
2023-03-02T10:09:33.860Z,6.30
2023-03-02T10:12:24.554Z,6.70
2023-03-02T10:15:00.320Z,10.70
2023-03-02T10:17:47.936Z,8.60
2023-03-02T10:20:22.053Z,7.50
2023-03-02T10:22:55.463Z,7.30
2023-03-02T10:25:34.639Z,8.50
2023-03-02T10:28:14.702Z,7.50
2023-03-02T10:30:46.011Z,8.60
2023-03-02T10:33:18.893Z,6.90
2023-03-02T10:35:50.857Z,7.00
2023-03-02T10:38:23.124Z,6.50
2023-03-02T10:41:00.405Z,6.30
2023-03-02T10:43:34.672Z,6.80
2023-03-02T10:46:07.777Z,5.40
2023-03-02T10:48:50.212Z,6.20
2023-03-02T10:51:28.719Z,6.20
2023-03-02T10:54:07.742Z,7.30
2023-03-02T10:56:55.569Z,7.20
2023-03-02T10:59:44.625Z,8.70
2023-03-02T11:02:22.913Z,7.60
2023-03-02T11:04:58.037Z,8.30
2023-03-02T11:07:33.158Z,7.90
2023-03-02T11:10:06.559Z,6.70
2023-03-02T11:12:38.660Z,6.60
2023-03-02T11:15:29.798Z,5.20
2023-03-02T11:18:04.703Z,3.20
2023-03-02T11:20:38.162Z,3.40
2023-03-02T11:23:17.077Z,2.40
2023-03-02T11:25:50.946Z,2.70
2023-03-02T11:28:30.385Z,2.60
2023-03-02T11:31:03.617Z,2.10
2023-03-02T11:33:39.365Z,2.50
2023-03-02T11:36:17.182Z,1.60
2023-03-02T11:38:51.150Z,1.30
2023-03-02T11:41:29.534Z,2.00
2023-03-02T11:44:09.292Z,2.00
2023-03-02T11:46:39.993Z,1.70
2023-03-02T11:49:19.673Z,2.30
2023-03-02T11:51:58.274Z,2.60
2023-03-02T11:54:37.235Z,2.70
2023-03-02T11:57:10.325Z,1.70
2023-03-02T11:59:40.857Z,2.10
2023-03-02T12:02:14.493Z,2.80
2023-03-02T12:04:46.018Z,2.10
2023-03-02T12:07:23.292Z,2.10
2023-03-02T12:10:03.327Z,1.90
2023-03-02T12:12:41.420Z,1.80
2023-03-02T12:15:35.501Z,2.80
2023-03-02T12:18:29.850Z,2.10
2023-03-02T12:21:05.209Z,2.90
2023-03-02T12:23:38.484Z,3.00
2023-03-02T12:26:26.816Z,2.60
2023-03-02T12:29:06.975Z,1.60
2023-03-02T12:31:49.041Z,2.50
2023-03-02T12:34:40.096Z,1.50
2023-03-02T12:37:16.772Z,1.70
2023-03-02T12:43:00.199Z,1.60
2023-03-02T12:45:39.350Z,1.60
2023-03-02T12:48:25.250Z,1.30
2023-03-02T12:50:57.405Z,1.60
2023-03-02T12:53:28.129Z,2.20
2023-03-02T12:56:00.828Z,1.10
2023-03-02T12:58:32.356Z,1.30
2023-03-02T13:01:24.761Z,1.60
2023-03-02T13:04:00.411Z,1.50
2023-03-02T13:06:32.824Z,1.70
2023-03-02T13:09:03.717Z,1.70
2023-03-02T13:11:38.283Z,1.60
2023-03-02T13:14:20.972Z,1.10
2023-03-02T13:17:07.260Z,1.20
2023-03-02T13:19:39.124Z,0.90
2023-03-02T13:22:12.187Z,1.00
2023-03-02T13:24:50.554Z,0.70
2023-03-02T13:27:22.271Z,1.10
2023-03-02T13:29:55.383Z,1.00
2023-03-02T13:32:27.580Z,1.00
2023-03-02T13:35:00.107Z,0.90
2023-03-02T13:37:40.514Z,1.00
2023-03-02T13:40:40.051Z,0.80
2023-03-02T13:43:35.171Z,1.10
2023-03-02T13:46:06.862Z,1.20
2023-03-02T13:48:37.429Z,0.90
2023-03-02T13:51:17.450Z,0.90
2023-03-02T13:53:58.679Z,1.50
2023-03-02T13:56:31.306Z,1.30
2023-03-02T13:59:01.909Z,1.20
2023-03-02T14:01:32.845Z,1.50
2023-03-02T14:04:03.519Z,0.90
2023-03-02T14:06:34.942Z,0.80
2023-03-02T14:09:05.695Z,1.10
2023-03-02T14:11:39.002Z,1.00
2023-03-02T14:14:12.697Z,0.40
2023-03-02T14:16:43.212Z,1.30
2023-03-02T14:19:15.971Z,1.10
2023-03-02T14:21:47.291Z,0.90
2023-03-02T14:24:17.824Z,1.00
2023-03-02T14:26:48.874Z,1.00
2023-03-02T14:29:23.702Z,0.90
2023-03-02T14:31:58.480Z,0.80
2023-03-02T14:34:31.328Z,0.70
2023-03-02T14:37:07.991Z,0.70
2023-03-02T14:39:41.690Z,0.90
2023-03-02T14:42:14.946Z,0.70
2023-03-02T14:44:47.614Z,0.80
2023-03-02T14:47:19.346Z,1.00
2023-03-02T14:49:50.050Z,1.10
2023-03-02T14:52:26.192Z,0.90
2023-03-02T14:55:00.124Z,1.10
2023-03-02T14:57:32.788Z,0.90
2023-03-02T15:00:03.921Z,0.90
2023-03-02T15:02:34.452Z,1.10
2023-03-02T15:05:06.093Z,1.40
2023-03-02T15:07:37.019Z,0.90
2023-03-02T15:10:09.220Z,1.00
2023-03-02T15:12:39.666Z,1.00
2023-03-02T15:15:12.249Z,0.70
2023-03-02T15:17:43.649Z,1.30
2023-03-02T15:20:16.423Z,1.60
2023-03-02T15:22:47.069Z,0.60
2023-03-02T15:25:17.885Z,0.60
2023-03-02T15:27:48.485Z,1.30
2023-03-02T15:30:20.182Z,0.80
2023-03-02T15:32:54.663Z,0.80
2023-03-02T15:35:28.835Z,0.60
2023-03-02T15:38:02.341Z,12.20
2023-03-02T15:40:33.492Z,0.90
2023-03-02T15:43:04.549Z,0.60
2023-03-02T15:45:35.717Z,0.60
2023-03-02T15:48:07.124Z,0.90
2023-03-02T15:50:37.795Z,0.70
2023-03-02T15:53:08.364Z,1.20
2023-03-02T15:55:42.586Z,0.70
2023-03-02T15:58:13.062Z,1.20
2023-03-02T16:00:43.818Z,0.60
2023-03-02T16:03:14.421Z,0.50
2023-03-02T16:05:45.187Z,0.60
2023-03-02T16:08:15.951Z,1.20
2023-03-02T16:10:46.983Z,1.00
2023-03-02T16:13:17.729Z,1.00
2023-03-02T16:15:48.293Z,1.00
2023-03-02T16:18:18.932Z,0.80
2023-03-02T16:20:49.942Z,0.60
2023-03-02T16:23:20.351Z,0.70
2023-03-02T16:25:50.755Z,0.70
2023-03-02T16:28:21.972Z,0.70
2023-03-02T16:30:52.426Z,0.70
2023-03-02T16:33:22.940Z,0.80
2023-03-02T16:35:53.835Z,0.90
2023-03-02T16:38:24.272Z,1.00
2023-03-02T16:40:57.119Z,0.50
2023-03-02T16:43:32.566Z,1.00
2023-03-02T16:46:03.229Z,0.60
2023-03-02T16:48:33.902Z,0.90
2023-03-02T16:51:04.769Z,1.00
2023-03-02T16:53:35.631Z,0.60
2023-03-02T16:56:07.670Z,0.90
2023-03-02T16:58:39.494Z,1.10
2023-03-02T17:01:12.244Z,0.80
2023-03-02T17:03:44.266Z,1.10
2023-03-02T17:06:17.178Z,0.70
2023-03-02T17:08:48.831Z,0.90
2023-03-02T17:11:19.996Z,0.80
2023-03-02T17:13:50.829Z,0.80
2023-03-02T17:16:21.783Z,0.90
2023-03-02T17:18:52.348Z,0.90
2023-03-02T17:21:24.523Z,1.00
2023-03-02T17:23:55.247Z,0.70
2023-03-02T17:26:25.579Z,0.70
2023-03-02T17:28:56.962Z,0.70
2023-03-02T17:31:27.904Z,0.50
2023-03-02T17:33:58.613Z,0.80
2023-03-02T17:36:29.479Z,2.10
2023-03-02T17:39:00.037Z,0.60
2023-03-02T17:41:31.539Z,1.60
2023-03-02T17:44:02.786Z,0.80
2023-03-02T17:46:34.038Z,0.80
2023-03-02T17:49:04.631Z,0.90
2023-03-02T17:51:35.493Z,1.20
2023-03-02T17:54:06.632Z,0.70
2023-03-02T17:56:37.376Z,0.70
2023-03-02T17:59:07.936Z,0.30
2023-03-02T18:01:38.571Z,0.60
2023-03-02T18:04:09.250Z,1.00
2023-03-02T18:06:40.091Z,1.00
2023-03-02T18:09:10.580Z,1.10
2023-03-02T18:11:42.235Z,1.00
2023-03-02T18:14:15.200Z,0.70
2023-03-02T18:16:45.602Z,0.90
2023-03-02T18:19:15.984Z,1.10
2023-03-02T18:21:46.439Z,1.40
2023-03-02T18:24:17.175Z,1.00
2023-03-02T18:26:47.861Z,1.40
2023-03-02T18:29:18.307Z,0.90
2023-03-02T18:31:49.331Z,0.70
2023-03-02T18:34:20.152Z,1.30
2023-03-02T18:36:50.635Z,2.80
2023-03-02T18:39:21.171Z,1.50
2023-03-02T18:41:52.846Z,1.80
2023-03-02T18:44:27.586Z,1.70
2023-03-02T18:46:58.474Z,1.50
2023-03-02T18:49:29.188Z,0.70
2023-03-02T18:52:05.404Z,0.70
2023-03-02T18:54:35.830Z,1.30
2023-03-02T18:57:07.133Z,0.60
2023-03-02T18:59:38.559Z,0.70
2023-03-02T19:02:12.765Z,1.00
2023-03-02T19:04:44.620Z,0.80
2023-03-02T19:07:15.829Z,1.00
2023-03-02T19:09:46.166Z,1.30
2023-03-02T19:12:18.294Z,1.10
2023-03-02T19:14:50.553Z,0.90
2023-03-02T19:17:21.242Z,1.00
2023-03-02T19:19:51.684Z,1.20
2023-03-02T19:22:22.404Z,1.10
2023-03-02T19:24:53.575Z,1.10
2023-03-02T19:27:24.649Z,1.00
2023-03-02T19:29:57.902Z,1.40
2023-03-02T19:32:28.952Z,0.60
2023-03-02T19:35:02.779Z,0.50
2023-03-02T19:37:33.431Z,0.90
2023-03-02T19:40:16.723Z,0.70
2023-03-02T19:42:54.449Z,1.10
2023-03-02T19:45:28.816Z,1.00
2023-03-02T19:48:00.379Z,0.40
2023-03-02T19:50:31.288Z,0.60
2023-03-02T19:53:02.580Z,0.80
2023-03-02T19:55:33.973Z,1.30
2023-03-02T19:58:04.747Z,1.10
2023-03-02T20:00:38.880Z,1.50
2023-03-02T20:03:09.559Z,0.70
2023-03-02T20:05:40.815Z,0.50
2023-03-02T20:08:11.248Z,0.80
2023-03-02T20:10:43.802Z,0.60
2023-03-02T20:13:14.544Z,3.30
2023-03-02T20:15:48.350Z,0.70
2023-03-02T20:18:20.256Z,0.30
2023-03-02T20:20:51.036Z,0.50
2023-03-02T20:23:21.351Z,0.40
2023-03-02T20:25:52.280Z,0.60
2023-03-02T20:28:25.395Z,2.10
2023-03-02T20:30:58.020Z,0.40
2023-03-02T20:33:31.507Z,0.50
2023-03-02T20:36:03.572Z,0.90
2023-03-02T20:38:38.642Z,0.90
2023-03-02T20:41:10.820Z,1.70
2023-03-02T20:43:42.865Z,0.90
2023-03-02T20:46:20.284Z,1.60
2023-03-02T20:48:51.398Z,1.50
2023-03-02T20:51:22.990Z,1.50
2023-03-02T20:53:53.893Z,1.20
2023-03-02T20:56:24.524Z,1.00
2023-03-02T20:58:56.085Z,1.10
2023-03-02T21:01:29.357Z,1.10
2023-03-02T21:04:00.146Z,1.20
2023-03-02T21:06:33.142Z,1.30
2023-03-02T21:09:04.391Z,1.20
2023-03-02T21:11:35.168Z,1.30
2023-03-02T21:14:05.801Z,2.10
2023-03-02T21:16:38.980Z,1.10
2023-03-02T21:19:12.722Z,1.40
2023-03-02T21:21:43.347Z,1.50
2023-03-02T21:24:16.369Z,1.30
2023-03-02T21:26:47.922Z,1.60
2023-03-02T21:29:19.553Z,2.00
2023-03-02T21:31:50.147Z,1.10
2023-03-02T21:34:21.866Z,1.60
2023-03-02T21:36:53.421Z,1.60
2023-03-02T21:39:24.164Z,1.00
2023-03-02T21:41:55.113Z,1.20
2023-03-02T21:44:25.848Z,1.40
2023-03-02T21:46:56.452Z,1.90
2023-03-02T21:49:26.926Z,1.40
2023-03-02T21:51:58.047Z,1.00
2023-03-02T21:54:28.586Z,1.10
2023-03-02T21:56:58.793Z,1.10
2023-03-02T21:59:30.499Z,1.00
2023-03-02T22:02:01.262Z,0.70
2023-03-02T22:04:32.182Z,1.50
2023-03-02T22:07:03.482Z,1.60
2023-03-02T22:09:34.139Z,1.50
2023-03-02T22:12:11.248Z,1.10
2023-03-02T22:14:41.457Z,1.70
2023-03-02T22:17:18.076Z,1.30
2023-03-02T22:19:52.702Z,1.10
2023-03-02T22:22:26.872Z,1.90
2023-03-02T22:24:57.162Z,1.30
2023-03-02T22:27:28.871Z,1.90
2023-03-02T22:30:00.060Z,1.30
2023-03-02T22:32:32.187Z,1.60
2023-03-02T22:35:12.457Z,2.00
2023-03-02T22:37:42.836Z,1.20
2023-03-02T22:40:22.142Z,1.70
2023-03-02T22:42:53.668Z,1.60
2023-03-02T22:45:24.288Z,1.90
2023-03-02T22:47:55.278Z,1.40
2023-03-02T22:50:27.862Z,1.40
2023-03-02T22:52:58.871Z,1.70
2023-03-02T22:55:36.956Z,1.30
2023-03-02T22:58:53.235Z,1.20
2023-03-02T23:01:25.294Z,1.10
2023-03-02T23:03:58.093Z,1.90
2023-03-02T23:06:30.688Z,1.90
2023-03-02T23:09:02.672Z,1.70
2023-03-02T23:11:37.377Z,1.60
2023-03-02T23:14:21.812Z,1.30
2023-03-02T23:16:57.861Z,1.60
2023-03-02T23:19:29.929Z,1.50
2023-03-02T23:22:00.611Z,1.30
2023-03-02T23:24:30.832Z,1.40
2023-03-02T23:27:01.126Z,0.90
2023-03-02T23:29:31.358Z,1.30
2023-03-02T23:32:02.241Z,1.00
2023-03-02T23:34:32.649Z,1.00
2023-03-02T23:37:03.104Z,1.20
2023-03-02T23:39:33.432Z,0.90
2023-03-02T23:42:03.588Z,1.40
2023-03-02T23:44:34.065Z,1.40
2023-03-02T23:47:04.557Z,1.20
2023-03-02T23:49:34.786Z,1.90
2023-03-02T23:52:05.362Z,1.90
2023-03-02T23:54:35.744Z,2.00
2023-03-02T23:57:06.479Z,0.90
2023-03-02T23:59:36.970Z,2.30
